sensor_id;sensor_type;location;lat;lon;timestamp;P1;durP1;ratioP1;P2;durP2;ratioP2
80131;SDS011;69442;51.442;10.564;2023-09-07T04:23:42;3.45;;;3.10;;
80131;SDS011;69442;51.442;10.564;2023-09-07T04:26:08;3.20;;;2.83;;
80131;SDS011;69442;51.442;10.564;2023-09-07T04:28:35;4.43;;;2.95;;
80131;SDS011;69442;51.442;10.564;2023-09-07T04:31:01;4.95;;;4.20;;
80131;SDS011;69442;51.442;10.564;2023-09-07T04:33:29;4.20;;;3.17;;
80131;SDS011;69442;51.442;10.564;2023-09-07T04:35:55;9.25;;;5.15;;
80131;SDS011;69442;51.442;10.564;2023-09-07T04:38:21;6.07;;;3.92;;
80131;SDS011;69442;51.442;10.564;2023-09-07T04:40:46;4.82;;;3.83;;
80131;SDS011;69442;51.442;10.564;2023-09-07T04:43:12;3.50;;;3.10;;
80131;SDS011;69442;51.442;10.564;2023-09-07T04:45:45;4.88;;;4.13;;
80131;SDS011;69442;51.442;10.564;2023-09-07T04:48:12;5.60;;;4.35;;
80131;SDS011;69442;51.442;10.564;2023-09-07T04:50:37;3.90;;;3.20;;
80131;SDS011;69442;51.442;10.564;2023-09-07T04:53:04;4.45;;;3.75;;
80131;SDS011;69442;51.442;10.564;2023-09-07T04:55:29;4.43;;;3.50;;
80131;SDS011;69442;51.442;10.564;2023-09-07T04:57:55;5.70;;;4.65;;
80131;SDS011;69442;51.442;10.564;2023-09-07T05:00:20;3.67;;;3.28;;
80131;SDS011;69442;51.442;10.564;2023-09-07T05:02:46;3.95;;;3.47;;
80131;SDS011;69442;51.442;10.564;2023-09-07T05:05:12;6.60;;;5.07;;
80131;SDS011;69442;51.442;10.564;2023-09-07T05:07:37;3.65;;;3.33;;
80131;SDS011;69442;51.442;10.564;2023-09-07T05:10:03;6.05;;;4.80;;
80131;SDS011;69442;51.442;10.564;2023-09-07T05:12:28;3.85;;;3.20;;
80131;SDS011;69442;51.442;10.564;2023-09-07T05:14:54;7.70;;;4.85;;
80131;SDS011;69442;51.442;10.564;2023-09-07T05:17:19;6.28;;;5.28;;
80131;SDS011;69442;51.442;10.564;2023-09-07T05:19:45;3.45;;;3.08;;
80131;SDS011;69442;51.442;10.564;2023-09-07T05:22:10;4.05;;;3.60;;
80131;SDS011;69442;51.442;10.564;2023-09-07T05:24:37;3.63;;;3.30;;
80131;SDS011;69442;51.442;10.564;2023-09-07T05:27:03;5.15;;;3.63;;
80131;SDS011;69442;51.442;10.564;2023-09-07T05:29:30;3.55;;;3.25;;
80131;SDS011;69442;51.442;10.564;2023-09-07T05:31:55;5.43;;;4.13;;
80131;SDS011;69442;51.442;10.564;2023-09-07T05:34:20;4.35;;;3.28;;
80131;SDS011;69442;51.442;10.564;2023-09-07T05:36:47;6.47;;;3.85;;
80131;SDS011;69442;51.442;10.564;2023-09-07T05:39:13;5.47;;;4.20;;
80131;SDS011;69442;51.442;10.564;2023-09-07T05:41:38;3.70;;;3.40;;
80131;SDS011;69442;51.442;10.564;2023-09-07T05:44:04;3.97;;;3.22;;
80131;SDS011;69442;51.442;10.564;2023-09-07T05:46:29;4.88;;;4.25;;
80131;SDS011;69442;51.442;10.564;2023-09-07T05:48:55;4.40;;;3.53;;
80131;SDS011;69442;51.442;10.564;2023-09-07T05:51:20;4.78;;;3.55;;
80131;SDS011;69442;51.442;10.564;2023-09-07T05:53:45;4.85;;;4.05;;
80131;SDS011;69442;51.442;10.564;2023-09-07T05:56:11;5.38;;;4.60;;
80131;SDS011;69442;51.442;10.564;2023-09-07T05:58:36;7.70;;;5.03;;
80131;SDS011;69442;51.442;10.564;2023-09-07T06:01:01;6.20;;;4.55;;
80131;SDS011;69442;51.442;10.564;2023-09-07T06:03:27;6.47;;;4.80;;
80131;SDS011;69442;51.442;10.564;2023-09-07T06:05:52;7.38;;;5.50;;
80131;SDS011;69442;51.442;10.564;2023-09-07T06:08:18;9.68;;;5.10;;
80131;SDS011;69442;51.442;10.564;2023-09-07T06:10:43;7.75;;;5.55;;
80131;SDS011;69442;51.442;10.564;2023-09-07T06:13:09;7.80;;;5.28;;
80131;SDS011;69442;51.442;10.564;2023-09-07T06:15:34;8.02;;;4.88;;
80131;SDS011;69442;51.442;10.564;2023-09-07T06:18:00;9.82;;;6.38;;
80131;SDS011;69442;51.442;10.564;2023-09-07T06:20:25;10.18;;;5.20;;
80131;SDS011;69442;51.442;10.564;2023-09-07T06:22:50;11.52;;;6.10;;
80131;SDS011;69442;51.442;10.564;2023-09-07T06:25:16;8.27;;;5.25;;
80131;SDS011;69442;51.442;10.564;2023-09-07T06:27:41;8.63;;;5.97;;
80131;SDS011;69442;51.442;10.564;2023-09-07T06:30:07;8.88;;;6.43;;
80131;SDS011;69442;51.442;10.564;2023-09-07T06:32:33;12.88;;;6.65;;
80131;SDS011;69442;51.442;10.564;2023-09-07T06:34:58;6.78;;;5.10;;
80131;SDS011;69442;51.442;10.564;2023-09-07T06:37:24;8.02;;;4.90;;
80131;SDS011;69442;51.442;10.564;2023-09-07T06:39:50;7.68;;;5.80;;
80131;SDS011;69442;51.442;10.564;2023-09-07T06:42:16;6.93;;;5.35;;
80131;SDS011;69442;51.442;10.564;2023-09-07T06:44:41;8.10;;;5.75;;
80131;SDS011;69442;51.442;10.564;2023-09-07T06:47:08;7.10;;;5.47;;
80131;SDS011;69442;51.442;10.564;2023-09-07T06:49:33;10.85;;;5.93;;
80131;SDS011;69442;51.442;10.564;2023-09-07T06:51:59;8.52;;;6.28;;
80131;SDS011;69442;51.442;10.564;2023-09-07T06:54:25;8.90;;;5.50;;
80131;SDS011;69442;51.442;10.564;2023-09-07T06:56:50;4.03;;;3.58;;
80131;SDS011;69442;51.442;10.564;2023-09-07T06:59:15;9.82;;;6.22;;
80131;SDS011;69442;51.442;10.564;2023-09-07T07:01:41;7.45;;;5.97;;
80131;SDS011;69442;51.442;10.564;2023-09-07T07:04:06;9.05;;;5.80;;
80131;SDS011;69442;51.442;10.564;2023-09-07T07:06:33;12.23;;;6.53;;
80131;SDS011;69442;51.442;10.564;2023-09-07T07:08:58;10.13;;;6.45;;
80131;SDS011;69442;51.442;10.564;2023-09-07T07:11:24;10.13;;;7.00;;
80131;SDS011;69442;51.442;10.564;2023-09-07T07:13:49;11.65;;;7.50;;
80131;SDS011;69442;51.442;10.564;2023-09-07T07:16:16;18.50;;;7.70;;
80131;SDS011;69442;51.442;10.564;2023-09-07T07:18:41;12.15;;;7.80;;
80131;SDS011;69442;51.442;10.564;2023-09-07T07:21:07;10.60;;;7.00;;
80131;SDS011;69442;51.442;10.564;2023-09-07T07:23:34;11.23;;;6.95;;
80131;SDS011;69442;51.442;10.564;2023-09-07T07:26:00;7.80;;;6.03;;
80131;SDS011;69442;51.442;10.564;2023-09-07T07:28:25;11.68;;;7.20;;
80131;SDS011;69442;51.442;10.564;2023-09-07T07:30:50;8.68;;;6.18;;
80131;SDS011;69442;51.442;10.564;2023-09-07T07:33:17;10.88;;;6.93;;
80131;SDS011;69442;51.442;10.564;2023-09-07T07:35:42;12.55;;;7.18;;
80131;SDS011;69442;51.442;10.564;2023-09-07T07:38:08;6.40;;;5.60;;
80131;SDS011;69442;51.442;10.564;2023-09-07T07:40:33;12.02;;;6.93;;
80131;SDS011;69442;51.442;10.564;2023-09-07T07:42:59;9.73;;;6.05;;
80131;SDS011;69442;51.442;10.564;2023-09-07T07:45:25;8.88;;;6.53;;
80131;SDS011;69442;51.442;10.564;2023-09-07T07:47:51;4.18;;;3.78;;
80131;SDS011;69442;51.442;10.564;2023-09-07T07:50:16;8.57;;;5.90;;
80131;SDS011;69442;51.442;10.564;2023-09-07T07:52:42;8.30;;;6.07;;
80131;SDS011;69442;51.442;10.564;2023-09-07T07:55:09;6.97;;;5.70;;
80131;SDS011;69442;51.442;10.564;2023-09-07T07:57:35;9.38;;;7.45;;
80131;SDS011;69442;51.442;10.564;2023-09-07T08:00:01;5.70;;;4.15;;
80131;SDS011;69442;51.442;10.564;2023-09-07T08:02:28;6.90;;;5.40;;
80131;SDS011;69442;51.442;10.564;2023-09-07T08:04:54;7.93;;;6.57;;
80131;SDS011;69442;51.442;10.564;2023-09-07T08:07:19;7.38;;;5.78;;
80131;SDS011;69442;51.442;10.564;2023-09-07T08:09:45;9.50;;;6.57;;
80131;SDS011;69442;51.442;10.564;2023-09-07T08:12:10;10.02;;;6.32;;
80131;SDS011;69442;51.442;10.564;2023-09-07T08:14:36;8.82;;;6.85;;
80131;SDS011;69442;51.442;10.564;2023-09-07T08:17:02;9.07;;;6.57;;
80131;SDS011;69442;51.442;10.564;2023-09-07T08:19:27;6.85;;;5.18;;
80131;SDS011;69442;51.442;10.564;2023-09-07T08:21:54;9.95;;;6.60;;
80131;SDS011;69442;51.442;10.564;2023-09-07T08:24:19;5.65;;;4.60;;
80131;SDS011;69442;51.442;10.564;2023-09-07T08:26:45;7.07;;;5.82;;
80131;SDS011;69442;51.442;10.564;2023-09-07T08:29:10;6.68;;;5.97;;
80131;SDS011;69442;51.442;10.564;2023-09-07T08:31:37;8.15;;;5.80;;
80131;SDS011;69442;51.442;10.564;2023-09-07T08:34:06;9.10;;;6.60;;
80131;SDS011;69442;51.442;10.564;2023-09-07T08:36:34;6.05;;;5.45;;
80131;SDS011;69442;51.442;10.564;2023-09-07T08:39:00;5.25;;;4.75;;
80131;SDS011;69442;51.442;10.564;2023-09-07T08:41:30;7.85;;;5.45;;
80131;SDS011;69442;51.442;10.564;2023-09-07T08:43:57;6.95;;;5.45;;
80131;SDS011;69442;51.442;10.564;2023-09-07T08:46:25;6.40;;;5.80;;
80131;SDS011;69442;51.442;10.564;2023-09-07T08:48:52;9.00;;;5.90;;
80131;SDS011;69442;51.442;10.564;2023-09-07T08:51:20;6.43;;;4.60;;
80131;SDS011;69442;51.442;10.564;2023-09-07T08:53:45;7.05;;;5.97;;
80131;SDS011;69442;51.442;10.564;2023-09-07T08:56:14;8.93;;;6.28;;
80131;SDS011;69442;51.442;10.564;2023-09-07T08:58:42;5.70;;;5.10;;
80131;SDS011;69442;51.442;10.564;2023-09-07T09:01:09;7.18;;;5.88;;
80131;SDS011;69442;51.442;10.564;2023-09-07T09:03:35;6.57;;;5.57;;
80131;SDS011;69442;51.442;10.564;2023-09-07T09:06:01;7.03;;;4.88;;
80131;SDS011;69442;51.442;10.564;2023-09-07T09:08:28;6.13;;;5.53;;
80131;SDS011;69442;51.442;10.564;2023-09-07T09:10:59;5.35;;;4.85;;
80131;SDS011;69442;51.442;10.564;2023-09-07T09:13:29;7.80;;;5.32;;
80131;SDS011;69442;51.442;10.564;2023-09-07T09:15:55;8.48;;;5.65;;
80131;SDS011;69442;51.442;10.564;2023-09-07T09:18:20;6.53;;;5.80;;
80131;SDS011;69442;51.442;10.564;2023-09-07T09:20:46;5.35;;;4.07;;
80131;SDS011;69442;51.442;10.564;2023-09-07T09:23:11;6.15;;;5.50;;
80131;SDS011;69442;51.442;10.564;2023-09-07T09:25:40;5.93;;;5.32;;
80131;SDS011;69442;51.442;10.564;2023-09-07T09:28:05;8.07;;;5.28;;
80131;SDS011;69442;51.442;10.564;2023-09-07T09:30:31;6.88;;;5.25;;
80131;SDS011;69442;51.442;10.564;2023-09-07T09:32:56;7.82;;;5.25;;
80131;SDS011;69442;51.442;10.564;2023-09-07T09:35:23;9.07;;;5.63;;
80131;SDS011;69442;51.442;10.564;2023-09-07T09:37:49;7.72;;;5.60;;
80131;SDS011;69442;51.442;10.564;2023-09-07T09:40:15;7.18;;;5.50;;
80131;SDS011;69442;51.442;10.564;2023-09-07T09:42:42;4.72;;;4.20;;
80131;SDS011;69442;51.442;10.564;2023-09-07T09:45:08;5.47;;;4.95;;
80131;SDS011;69442;51.442;10.564;2023-09-07T09:47:40;5.57;;;5.03;;
80131;SDS011;69442;51.442;10.564;2023-09-07T09:50:07;5.60;;;5.10;;
80131;SDS011;69442;51.442;10.564;2023-09-07T09:52:34;7.55;;;5.53;;
80131;SDS011;69442;51.442;10.564;2023-09-07T09:55:02;6.57;;;5.47;;
80131;SDS011;69442;51.442;10.564;2023-09-07T09:57:33;4.90;;;4.10;;
80131;SDS011;69442;51.442;10.564;2023-09-07T09:59:59;5.35;;;4.88;;
80131;SDS011;69442;51.442;10.564;2023-09-07T10:02:34;6.60;;;4.93;;
80131;SDS011;69442;51.442;10.564;2023-09-07T10:07:41;5.65;;;4.28;;
80131;SDS011;69442;51.442;10.564;2023-09-07T10:10:12;5.60;;;4.60;;
80131;SDS011;69442;51.442;10.564;2023-09-07T10:13:01;5.88;;;5.00;;
80131;SDS011;69442;51.442;10.564;2023-09-07T10:15:25;7.78;;;5.25;;
80131;SDS011;69442;51.442;10.564;2023-09-07T10:18:05;6.78;;;5.22;;
80131;SDS011;69442;51.442;10.564;2023-09-07T10:23:18;5.93;;;5.32;;
80131;SDS011;69442;51.442;10.564;2023-09-07T10:25:48;6.63;;;5.40;;
80131;SDS011;69442;51.442;10.564;2023-09-07T10:28:18;5.72;;;5.10;;
80131;SDS011;69442;51.442;10.564;2023-09-07T10:30:44;7.33;;;5.37;;
80131;SDS011;69442;51.442;10.564;2023-09-07T10:33:20;4.28;;;3.88;;
80131;SDS011;69442;51.442;10.564;2023-09-07T10:35:46;6.95;;;4.88;;
80131;SDS011;69442;51.442;10.564;2023-09-07T10:38:14;5.50;;;5.00;;
80131;SDS011;69442;51.442;10.564;2023-09-07T10:40:40;6.22;;;5.15;;
80131;SDS011;69442;51.442;10.564;2023-09-07T10:43:08;5.90;;;5.38;;
80131;SDS011;69442;51.442;10.564;2023-09-07T10:45:34;5.78;;;4.32;;
80131;SDS011;69442;51.442;10.564;2023-09-07T10:47:59;4.35;;;4.00;;
80131;SDS011;69442;51.442;10.564;2023-09-07T10:50:26;4.60;;;4.18;;
80131;SDS011;69442;51.442;10.564;2023-09-07T10:52:53;5.10;;;4.47;;
80131;SDS011;69442;51.442;10.564;2023-09-07T10:55:18;5.10;;;4.13;;
80131;SDS011;69442;51.442;10.564;2023-09-07T10:57:44;4.88;;;4.38;;
80131;SDS011;69442;51.442;10.564;2023-09-07T11:00:11;5.63;;;4.32;;
80131;SDS011;69442;51.442;10.564;2023-09-07T11:02:38;4.65;;;4.13;;
80131;SDS011;69442;51.442;10.564;2023-09-07T11:05:04;6.63;;;4.22;;
80131;SDS011;69442;51.442;10.564;2023-09-07T11:07:31;4.93;;;4.20;;
80131;SDS011;69442;51.442;10.564;2023-09-07T11:09:56;6.47;;;4.20;;
80131;SDS011;69442;51.442;10.564;2023-09-07T11:12:22;5.05;;;4.03;;
80131;SDS011;69442;51.442;10.564;2023-09-07T11:14:47;5.47;;;4.28;;
80131;SDS011;69442;51.442;10.564;2023-09-07T11:17:13;4.70;;;4.05;;
80131;SDS011;69442;51.442;10.564;2023-09-07T11:19:38;5.35;;;3.90;;
80131;SDS011;69442;51.442;10.564;2023-09-07T11:22:04;4.95;;;4.45;;
80131;SDS011;69442;51.442;10.564;2023-09-07T11:24:30;4.93;;;4.28;;
80131;SDS011;69442;51.442;10.564;2023-09-07T11:26:57;4.68;;;4.28;;
80131;SDS011;69442;51.442;10.564;2023-09-07T11:29:22;5.00;;;4.50;;
80131;SDS011;69442;51.442;10.564;2023-09-07T11:31:48;4.97;;;4.30;;
80131;SDS011;69442;51.442;10.564;2023-09-07T11:34:14;4.63;;;4.22;;
80131;SDS011;69442;51.442;10.564;2023-09-07T11:36:40;5.35;;;4.03;;
80131;SDS011;69442;51.442;10.564;2023-09-07T11:39:06;4.82;;;4.32;;
80131;SDS011;69442;51.442;10.564;2023-09-07T11:41:38;4.40;;;4.00;;
80131;SDS011;69442;51.442;10.564;2023-09-07T11:46:32;5.53;;;4.32;;
80131;SDS011;69442;51.442;10.564;2023-09-07T11:48:58;5.43;;;4.38;;
80131;SDS011;69442;51.442;10.564;2023-09-07T11:51:23;4.65;;;4.25;;
80131;SDS011;69442;51.442;10.564;2023-09-07T11:53:49;5.30;;;4.32;;
80131;SDS011;69442;51.442;10.564;2023-09-07T11:56:14;4.57;;;4.18;;
80131;SDS011;69442;51.442;10.564;2023-09-07T11:58:40;4.85;;;4.45;;
80131;SDS011;69442;51.442;10.564;2023-09-07T12:01:07;5.82;;;4.15;;
80131;SDS011;69442;51.442;10.564;2023-09-07T12:03:34;5.40;;;4.07;;
80131;SDS011;69442;51.442;10.564;2023-09-07T12:05:59;5.05;;;4.22;;
80131;SDS011;69442;51.442;10.564;2023-09-07T12:08:25;5.50;;;4.10;;
80131;SDS011;69442;51.442;10.564;2023-09-07T12:10:50;5.20;;;3.95;;
80131;SDS011;69442;51.442;10.564;2023-09-07T12:13:16;5.03;;;4.30;;
80131;SDS011;69442;51.442;10.564;2023-09-07T12:15:41;6.72;;;4.63;;
80131;SDS011;69442;51.442;10.564;2023-09-07T12:18:06;4.90;;;4.40;;
80131;SDS011;69442;51.442;10.564;2023-09-07T12:20:32;5.47;;;4.28;;
80131;SDS011;69442;51.442;10.564;2023-09-07T12:22:59;5.20;;;3.72;;
80131;SDS011;69442;51.442;10.564;2023-09-07T12:25:25;4.65;;;4.18;;
80131;SDS011;69442;51.442;10.564;2023-09-07T12:27:51;4.38;;;3.88;;
80131;SDS011;69442;51.442;10.564;2023-09-07T12:30:19;4.90;;;4.43;;
80131;SDS011;69442;51.442;10.564;2023-09-07T12:32:47;6.45;;;4.80;;
80131;SDS011;69442;51.442;10.564;2023-09-07T12:35:12;6.00;;;3.83;;
80131;SDS011;69442;51.442;10.564;2023-09-07T12:37:38;5.05;;;4.05;;
80131;SDS011;69442;51.442;10.564;2023-09-07T12:40:03;7.80;;;4.60;;
80131;SDS011;69442;51.442;10.564;2023-09-07T12:42:40;8.75;;;4.75;;
80131;SDS011;69442;51.442;10.564;2023-09-07T12:45:10;4.90;;;4.40;;
80131;SDS011;69442;51.442;10.564;2023-09-07T12:47:39;8.20;;;4.45;;
80131;SDS011;69442;51.442;10.564;2023-09-07T12:50:05;5.15;;;4.32;;
80131;SDS011;69442;51.442;10.564;2023-09-07T12:52:32;4.47;;;4.07;;
80131;SDS011;69442;51.442;10.564;2023-09-07T12:55:00;4.60;;;4.05;;
80131;SDS011;69442;51.442;10.564;2023-09-07T12:57:26;5.30;;;4.75;;
80131;SDS011;69442;51.442;10.564;2023-09-07T12:59:51;6.75;;;4.60;;
80131;SDS011;69442;51.442;10.564;2023-09-07T13:02:17;5.20;;;4.20;;
80131;SDS011;69442;51.442;10.564;2023-09-07T13:04:42;6.18;;;4.60;;
80131;SDS011;69442;51.442;10.564;2023-09-07T13:07:07;6.30;;;4.22;;
80131;SDS011;69442;51.442;10.564;2023-09-07T13:09:33;6.18;;;4.47;;
80131;SDS011;69442;51.442;10.564;2023-09-07T13:11:59;5.45;;;4.38;;
80131;SDS011;69442;51.442;10.564;2023-09-07T13:14:25;6.70;;;4.70;;
80131;SDS011;69442;51.442;10.564;2023-09-07T13:16:50;5.88;;;4.47;;
80131;SDS011;69442;51.442;10.564;2023-09-07T13:19:16;4.80;;;4.40;;
80131;SDS011;69442;51.442;10.564;2023-09-07T13:21:41;6.78;;;4.38;;
80131;SDS011;69442;51.442;10.564;2023-09-07T13:24:07;6.93;;;4.60;;
80131;SDS011;69442;51.442;10.564;2023-09-07T13:26:32;4.82;;;4.32;;
80131;SDS011;69442;51.442;10.564;2023-09-07T13:28:57;8.43;;;4.38;;
80131;SDS011;69442;51.442;10.564;2023-09-07T13:31:23;8.23;;;4.63;;
80131;SDS011;69442;51.442;10.564;2023-09-07T13:33:48;5.75;;;4.40;;
80131;SDS011;69442;51.442;10.564;2023-09-07T13:36:14;4.95;;;4.10;;
80131;SDS011;69442;51.442;10.564;2023-09-07T13:38:39;5.95;;;4.50;;
80131;SDS011;69442;51.442;10.564;2023-09-07T13:41:06;6.47;;;4.20;;
80131;SDS011;69442;51.442;10.564;2023-09-07T13:43:31;4.70;;;4.10;;
80131;SDS011;69442;51.442;10.564;2023-09-07T13:45:57;4.28;;;3.88;;
80131;SDS011;69442;51.442;10.564;2023-09-07T13:48:22;4.10;;;3.78;;
80131;SDS011;69442;51.442;10.564;2023-09-07T13:50:48;4.47;;;3.90;;
80131;SDS011;69442;51.442;10.564;2023-09-07T13:53:14;4.68;;;4.00;;
80131;SDS011;69442;51.442;10.564;2023-09-07T13:55:39;7.07;;;4.07;;
80131;SDS011;69442;51.442;10.564;2023-09-07T13:58:07;4.20;;;3.63;;
80131;SDS011;69442;51.442;10.564;2023-09-07T14:00:32;5.18;;;3.70;;
80131;SDS011;69442;51.442;10.564;2023-09-07T14:02:59;5.88;;;3.92;;
80131;SDS011;69442;51.442;10.564;2023-09-07T14:05:24;5.70;;;3.85;;
80131;SDS011;69442;51.442;10.564;2023-09-07T14:07:49;5.93;;;3.83;;
80131;SDS011;69442;51.442;10.564;2023-09-07T14:10:15;4.22;;;3.63;;
80131;SDS011;69442;51.442;10.564;2023-09-07T14:12:40;5.93;;;3.63;;
80131;SDS011;69442;51.442;10.564;2023-09-07T14:15:08;4.43;;;4.00;;
80131;SDS011;69442;51.442;10.564;2023-09-07T14:17:33;4.10;;;3.65;;
80131;SDS011;69442;51.442;10.564;2023-09-07T14:19:59;4.72;;;4.05;;
80131;SDS011;69442;51.442;10.564;2023-09-07T14:22:24;4.68;;;4.25;;
80131;SDS011;69442;51.442;10.564;2023-09-07T14:24:49;5.90;;;3.80;;
80131;SDS011;69442;51.442;10.564;2023-09-07T14:27:15;5.72;;;3.70;;
80131;SDS011;69442;51.442;10.564;2023-09-07T14:29:40;6.10;;;4.03;;
80131;SDS011;69442;51.442;10.564;2023-09-07T14:32:06;5.93;;;4.00;;
80131;SDS011;69442;51.442;10.564;2023-09-07T14:34:31;4.25;;;3.75;;
80131;SDS011;69442;51.442;10.564;2023-09-07T14:36:56;5.95;;;4.03;;
80131;SDS011;69442;51.442;10.564;2023-09-07T14:39:22;4.50;;;3.92;;
80131;SDS011;69442;51.442;10.564;2023-09-07T14:41:50;5.65;;;3.70;;
80131;SDS011;69442;51.442;10.564;2023-09-07T14:44:18;4.93;;;3.58;;
80131;SDS011;69442;51.442;10.564;2023-09-07T14:46:43;5.55;;;4.03;;
80131;SDS011;69442;51.442;10.564;2023-09-07T14:49:09;5.00;;;4.40;;
80131;SDS011;69442;51.442;10.564;2023-09-07T14:51:34;6.13;;;4.10;;
80131;SDS011;69442;51.442;10.564;2023-09-07T14:54:00;5.07;;;3.92;;
80131;SDS011;69442;51.442;10.564;2023-09-07T14:56:25;5.88;;;3.78;;
80131;SDS011;69442;51.442;10.564;2023-09-07T14:58:51;4.32;;;3.80;;
80131;SDS011;69442;51.442;10.564;2023-09-07T15:01:17;5.70;;;4.00;;
80131;SDS011;69442;51.442;10.564;2023-09-07T15:03:42;3.90;;;3.53;;
80131;SDS011;69442;51.442;10.564;2023-09-07T15:06:08;5.05;;;3.80;;
80131;SDS011;69442;51.442;10.564;2023-09-07T15:08:36;4.72;;;4.22;;
80131;SDS011;69442;51.442;10.564;2023-09-07T15:11:02;5.65;;;3.85;;
80131;SDS011;69442;51.442;10.564;2023-09-07T15:13:28;6.00;;;3.75;;
80131;SDS011;69442;51.442;10.564;2023-09-07T15:15:54;5.72;;;3.80;;
80131;SDS011;69442;51.442;10.564;2023-09-07T15:18:19;4.13;;;3.72;;
80131;SDS011;69442;51.442;10.564;2023-09-07T15:20:45;4.13;;;3.75;;
80131;SDS011;69442;51.442;10.564;2023-09-07T15:23:10;4.70;;;3.63;;
80131;SDS011;69442;51.442;10.564;2023-09-07T15:25:35;5.10;;;3.78;;
80131;SDS011;69442;51.442;10.564;2023-09-07T15:28:01;4.43;;;3.95;;
80131;SDS011;69442;51.442;10.564;2023-09-07T15:30:26;5.50;;;3.85;;
80131;SDS011;69442;51.442;10.564;2023-09-07T15:32:52;4.38;;;3.63;;
80131;SDS011;69442;51.442;10.564;2023-09-07T15:35:17;5.63;;;3.70;;
80131;SDS011;69442;51.442;10.564;2023-09-07T15:37:43;4.40;;;3.20;;
80131;SDS011;69442;51.442;10.564;2023-09-07T15:40:11;5.63;;;3.80;;
80131;SDS011;69442;51.442;10.564;2023-09-07T15:42:37;5.68;;;3.90;;
80131;SDS011;69442;51.442;10.564;2023-09-07T15:45:03;3.92;;;3.45;;
80131;SDS011;69442;51.442;10.564;2023-09-07T15:47:29;4.15;;;3.35;;
80131;SDS011;69442;51.442;10.564;2023-09-07T15:49:57;5.93;;;3.70;;
80131;SDS011;69442;51.442;10.564;2023-09-07T15:52:22;6.20;;;3.70;;
80131;SDS011;69442;51.442;10.564;2023-09-07T15:54:48;3.95;;;3.55;;
80131;SDS011;69442;51.442;10.564;2023-09-07T15:57:13;3.88;;;3.47;;
80131;SDS011;69442;51.442;10.564;2023-09-07T15:59:39;5.50;;;3.80;;
80131;SDS011;69442;51.442;10.564;2023-09-07T16:02:04;4.57;;;3.53;;
80131;SDS011;69442;51.442;10.564;2023-09-07T16:04:31;5.47;;;3.65;;
80131;SDS011;69442;51.442;10.564;2023-09-07T16:06:56;4.18;;;3.25;;
80131;SDS011;69442;51.442;10.564;2023-09-07T16:09:22;3.90;;;3.40;;
80131;SDS011;69442;51.442;10.564;2023-09-07T16:11:47;5.28;;;3.72;;
80131;SDS011;69442;51.442;10.564;2023-09-07T16:14:13;3.83;;;3.25;;
80131;SDS011;69442;51.442;10.564;2023-09-07T16:16:38;4.07;;;3.42;;
80131;SDS011;69442;51.442;10.564;2023-09-07T16:19:04;17.92;;;4.80;;
80131;SDS011;69442;51.442;10.564;2023-09-07T16:21:29;4.68;;;3.70;;
80131;SDS011;69442;51.442;10.564;2023-09-07T16:23:55;3.97;;;3.33;;
80131;SDS011;69442;51.442;10.564;2023-09-07T16:26:21;4.63;;;3.47;;
80131;SDS011;69442;51.442;10.564;2023-09-07T16:28:47;3.67;;;3.38;;
80131;SDS011;69442;51.442;10.564;2023-09-07T16:31:13;9.60;;;3.80;;
80131;SDS011;69442;51.442;10.564;2023-09-07T16:33:39;4.18;;;3.58;;
80131;SDS011;69442;51.442;10.564;2023-09-07T16:36:05;6.20;;;3.47;;
80131;SDS011;69442;51.442;10.564;2023-09-07T16:38:30;4.18;;;3.50;;
80131;SDS011;69442;51.442;10.564;2023-09-07T16:40:56;3.65;;;3.35;;
80131;SDS011;69442;51.442;10.564;2023-09-07T16:43:21;9.50;;;3.67;;
80131;SDS011;69442;51.442;10.564;2023-09-07T16:45:56;5.05;;;3.47;;
80131;SDS011;69442;51.442;10.564;2023-09-07T16:48:23;4.43;;;3.40;;
80131;SDS011;69442;51.442;10.564;2023-09-07T16:50:48;5.10;;;3.47;;
80131;SDS011;69442;51.442;10.564;2023-09-07T16:53:14;3.55;;;3.20;;
80131;SDS011;69442;51.442;10.564;2023-09-07T16:55:39;3.83;;;3.42;;
80131;SDS011;69442;51.442;10.564;2023-09-07T16:58:04;3.78;;;3.25;;
80131;SDS011;69442;51.442;10.564;2023-09-07T17:00:30;3.55;;;3.25;;
80131;SDS011;69442;51.442;10.564;2023-09-07T17:02:55;4.63;;;3.55;;
80131;SDS011;69442;51.442;10.564;2023-09-07T17:05:20;3.47;;;3.17;;
80131;SDS011;69442;51.442;10.564;2023-09-07T17:07:46;3.28;;;2.97;;
80131;SDS011;69442;51.442;10.564;2023-09-07T17:10:11;4.30;;;3.30;;
80131;SDS011;69442;51.442;10.564;2023-09-07T17:12:36;4.13;;;3.15;;
80131;SDS011;69442;51.442;10.564;2023-09-07T17:15:02;3.50;;;3.20;;
80131;SDS011;69442;51.442;10.564;2023-09-07T17:17:29;7.22;;;3.47;;
80131;SDS011;69442;51.442;10.564;2023-09-07T17:19:54;3.40;;;3.08;;
80131;SDS011;69442;51.442;10.564;2023-09-07T17:22:20;3.67;;;2.85;;
80131;SDS011;69442;51.442;10.564;2023-09-07T17:24:45;3.10;;;2.90;;
80131;SDS011;69442;51.442;10.564;2023-09-07T17:27:10;3.47;;;3.10;;
80131;SDS011;69442;51.442;10.564;2023-09-07T17:29:36;3.50;;;3.20;;
80131;SDS011;69442;51.442;10.564;2023-09-07T17:32:01;3.22;;;2.92;;
80131;SDS011;69442;51.442;10.564;2023-09-07T17:34:28;4.15;;;3.28;;
80131;SDS011;69442;51.442;10.564;2023-09-07T17:36:53;3.03;;;2.72;;
80131;SDS011;69442;51.442;10.564;2023-09-07T17:39:18;3.40;;;3.10;;
80131;SDS011;69442;51.442;10.564;2023-09-07T17:41:44;3.75;;;3.40;;
80131;SDS011;69442;51.442;10.564;2023-09-07T17:44:10;4.95;;;3.65;;
80131;SDS011;69442;51.442;10.564;2023-09-07T17:46:35;4.97;;;3.00;;
80131;SDS011;69442;51.442;10.564;2023-09-07T17:49:03;3.30;;;3.00;;
80131;SDS011;69442;51.442;10.564;2023-09-07T17:51:29;4.10;;;3.28;;
80131;SDS011;69442;51.442;10.564;2023-09-07T17:53:56;3.33;;;3.03;;
80131;SDS011;69442;51.442;10.564;2023-09-07T17:56:21;3.65;;;3.30;;
80131;SDS011;69442;51.442;10.564;2023-09-07T17:58:47;3.40;;;3.10;;
80131;SDS011;69442;51.442;10.564;2023-09-07T18:01:17;3.60;;;3.30;;
80131;SDS011;69442;51.442;10.564;2023-09-07T18:03:43;4.35;;;3.08;;
80131;SDS011;69442;51.442;10.564;2023-09-07T18:06:09;4.70;;;3.17;;
80131;SDS011;69442;51.442;10.564;2023-09-07T18:08:35;4.22;;;2.80;;
80131;SDS011;69442;51.442;10.564;2023-09-07T18:11:02;3.70;;;3.20;;
80131;SDS011;69442;51.442;10.564;2023-09-07T18:13:28;4.18;;;3.78;;
80131;SDS011;69442;51.442;10.564;2023-09-07T18:15:54;3.85;;;3.47;;
80131;SDS011;69442;51.442;10.564;2023-09-07T18:18:21;4.32;;;3.35;;
80131;SDS011;69442;51.442;10.564;2023-09-07T18:20:47;3.17;;;2.90;;
80131;SDS011;69442;51.442;10.564;2023-09-07T18:23:12;3.78;;;3.20;;
80131;SDS011;69442;51.442;10.564;2023-09-07T18:25:42;4.15;;;3.30;;
80131;SDS011;69442;51.442;10.564;2023-09-07T18:28:09;3.30;;;3.00;;
80131;SDS011;69442;51.442;10.564;2023-09-07T18:30:34;4.80;;;3.40;;
80131;SDS011;69442;51.442;10.564;2023-09-07T18:33:01;3.47;;;2.92;;
80131;SDS011;69442;51.442;10.564;2023-09-07T18:35:28;3.20;;;2.90;;
80131;SDS011;69442;51.442;10.564;2023-09-07T18:37:57;4.38;;;3.53;;
80131;SDS011;69442;51.442;10.564;2023-09-07T18:40:23;4.45;;;3.20;;
80131;SDS011;69442;51.442;10.564;2023-09-07T18:42:49;3.22;;;2.83;;
80131;SDS011;69442;51.442;10.564;2023-09-07T18:45:15;4.03;;;3.20;;
80131;SDS011;69442;51.442;10.564;2023-09-07T18:47:41;4.45;;;3.08;;
80131;SDS011;69442;51.442;10.564;2023-09-07T18:50:06;3.38;;;2.92;;
80131;SDS011;69442;51.442;10.564;2023-09-07T18:52:35;3.85;;;3.20;;
80131;SDS011;69442;51.442;10.564;2023-09-07T18:55:01;4.63;;;2.90;;
80131;SDS011;69442;51.442;10.564;2023-09-07T18:57:28;4.97;;;3.22;;